sensor_id;sensor_type;location;lat;lon;timestamp;P1;durP1;ratioP1;P2;durP2;ratioP2
17965;SDS011;9108;53.204;10.424;2023-05-10T00:00:55;6.55;;;3.42;;
17965;SDS011;9108;53.204;10.424;2023-05-10T00:03:22;6.97;;;3.50;;
17965;SDS011;9108;53.204;10.424;2023-05-10T00:05:49;6.93;;;3.33;;
17965;SDS011;9108;53.204;10.424;2023-05-10T00:08:18;6.63;;;3.50;;
17965;SDS011;9108;53.204;10.424;2023-05-10T00:10:45;10.93;;;3.80;;
17965;SDS011;9108;53.204;10.424;2023-05-10T00:13:12;8.77;;;3.42;;
17965;SDS011;9108;53.204;10.424;2023-05-10T00:15:39;8.23;;;3.50;;
17965;SDS011;9108;53.204;10.424;2023-05-10T00:18:07;8.32;;;3.60;;
17965;SDS011;9108;53.204;10.424;2023-05-10T00:20:34;9.27;;;3.53;;
17965;SDS011;9108;53.204;10.424;2023-05-10T00:23:01;7.47;;;3.77;;
17965;SDS011;9108;53.204;10.424;2023-05-10T00:25:30;7.57;;;3.47;;
17965;SDS011;9108;53.204;10.424;2023-05-10T00:27:57;7.53;;;3.33;;
17965;SDS011;9108;53.204;10.424;2023-05-10T00:30:26;8.95;;;3.60;;
17965;SDS011;9108;53.204;10.424;2023-05-10T00:32:53;6.95;;;3.50;;
17965;SDS011;9108;53.204;10.424;2023-05-10T00:35:20;10.02;;;3.70;;
17965;SDS011;9108;53.204;10.424;2023-05-10T00:37:47;10.35;;;3.88;;
17965;SDS011;9108;53.204;10.424;2023-05-10T00:40:14;8.83;;;3.77;;
17965;SDS011;9108;53.204;10.424;2023-05-10T00:42:43;6.75;;;3.70;;
17965;SDS011;9108;53.204;10.424;2023-05-10T00:45:10;6.07;;;3.75;;
17965;SDS011;9108;53.204;10.424;2023-05-10T00:47:37;7.18;;;3.60;;
17965;SDS011;9108;53.204;10.424;2023-05-10T00:50:05;9.95;;;3.67;;
17965;SDS011;9108;53.204;10.424;2023-05-10T00:52:32;8.02;;;3.65;;
17965;SDS011;9108;53.204;10.424;2023-05-10T00:54:59;9.50;;;3.80;;
17965;SDS011;9108;53.204;10.424;2023-05-10T00:57:28;7.40;;;3.67;;
17965;SDS011;9108;53.204;10.424;2023-05-10T00:59:56;9.52;;;3.47;;
17965;SDS011;9108;53.204;10.424;2023-05-10T01:02:24;7.97;;;3.80;;
17965;SDS011;9108;53.204;10.424;2023-05-10T01:04:52;8.70;;;3.70;;
17965;SDS011;9108;53.204;10.424;2023-05-10T01:07:19;8.02;;;3.80;;
17965;SDS011;9108;53.204;10.424;2023-05-10T01:09:46;7.78;;;3.92;;
17965;SDS011;9108;53.204;10.424;2023-05-10T01:12:13;7.40;;;3.60;;
17965;SDS011;9108;53.204;10.424;2023-05-10T01:14:41;7.28;;;3.92;;
17965;SDS011;9108;53.204;10.424;2023-05-10T01:17:09;9.90;;;3.92;;
17965;SDS011;9108;53.204;10.424;2023-05-10T01:19:37;5.95;;;3.50;;
17965;SDS011;9108;53.204;10.424;2023-05-10T01:22:06;6.30;;;3.70;;
17965;SDS011;9108;53.204;10.424;2023-05-10T01:27:25;7.53;;;4.00;;
17965;SDS011;9108;53.204;10.424;2023-05-10T01:30:08;9.60;;;3.83;;
17965;SDS011;9108;53.204;10.424;2023-05-10T01:32:37;6.82;;;3.47;;
17965;SDS011;9108;53.204;10.424;2023-05-10T01:35:09;8.48;;;3.75;;
17965;SDS011;9108;53.204;10.424;2023-05-10T01:37:40;8.85;;;3.80;;
17965;SDS011;9108;53.204;10.424;2023-05-10T01:40:09;7.90;;;4.00;;
17965;SDS011;9108;53.204;10.424;2023-05-10T01:42:40;7.65;;;3.85;;
17965;SDS011;9108;53.204;10.424;2023-05-10T01:45:11;6.47;;;3.53;;
17965;SDS011;9108;53.204;10.424;2023-05-10T01:47:43;8.73;;;3.75;;
17965;SDS011;9108;53.204;10.424;2023-05-10T01:50:11;8.60;;;3.95;;
17965;SDS011;9108;53.204;10.424;2023-05-10T01:52:42;7.70;;;4.18;;
17965;SDS011;9108;53.204;10.424;2023-05-10T01:55:11;10.30;;;3.90;;
17965;SDS011;9108;53.204;10.424;2023-05-10T01:57:40;8.45;;;3.80;;
17965;SDS011;9108;53.204;10.424;2023-05-10T02:00:09;8.50;;;4.10;;
17965;SDS011;9108;53.204;10.424;2023-05-10T02:02:37;8.10;;;3.55;;
17965;SDS011;9108;53.204;10.424;2023-05-10T02:05:08;7.70;;;3.77;;
17965;SDS011;9108;53.204;10.424;2023-05-10T02:07:36;8.73;;;4.00;;
17965;SDS011;9108;53.204;10.424;2023-05-10T02:10:04;7.50;;;3.70;;
17965;SDS011;9108;53.204;10.424;2023-05-10T02:12:32;8.52;;;4.10;;
17965;SDS011;9108;53.204;10.424;2023-05-10T02:15:02;8.57;;;4.07;;
17965;SDS011;9108;53.204;10.424;2023-05-10T02:17:29;8.10;;;3.93;;
17965;SDS011;9108;53.204;10.424;2023-05-10T02:19:57;6.38;;;3.80;;
17965;SDS011;9108;53.204;10.424;2023-05-10T02:22:27;7.43;;;3.72;;
17965;SDS011;9108;53.204;10.424;2023-05-10T02:24:54;6.80;;;4.05;;
17965;SDS011;9108;53.204;10.424;2023-05-10T02:27:22;7.40;;;3.90;;
17965;SDS011;9108;53.204;10.424;2023-05-10T02:29:50;7.25;;;3.90;;
17965;SDS011;9108;53.204;10.424;2023-05-10T02:32:18;6.40;;;4.03;;
17965;SDS011;9108;53.204;10.424;2023-05-10T02:34:45;6.28;;;3.78;;
17965;SDS011;9108;53.204;10.424;2023-05-10T02:37:16;6.25;;;3.80;;
17965;SDS011;9108;53.204;10.424;2023-05-10T02:39:47;8.00;;;3.90;;
17965;SDS011;9108;53.204;10.424;2023-05-10T02:42:15;8.55;;;4.20;;
17965;SDS011;9108;53.204;10.424;2023-05-10T02:44:44;10.70;;;4.15;;
17965;SDS011;9108;53.204;10.424;2023-05-10T02:47:12;10.60;;;4.18;;
17965;SDS011;9108;53.204;10.424;2023-05-10T02:49:39;7.25;;;3.92;;
17965;SDS011;9108;53.204;10.424;2023-05-10T02:52:06;14.88;;;4.15;;
17965;SDS011;9108;53.204;10.424;2023-05-10T02:54:45;8.35;;;4.00;;
17965;SDS011;9108;53.204;10.424;2023-05-10T02:57:16;9.02;;;4.05;;
17965;SDS011;9108;53.204;10.424;2023-05-10T02:59:44;8.50;;;4.13;;
17965;SDS011;9108;53.204;10.424;2023-05-10T03:02:11;8.25;;;3.83;;
17965;SDS011;9108;53.204;10.424;2023-05-10T03:04:39;8.45;;;4.07;;
17965;SDS011;9108;53.204;10.424;2023-05-10T03:07:08;7.13;;;4.00;;
17965;SDS011;9108;53.204;10.424;2023-05-10T03:09:35;7.95;;;4.20;;
17965;SDS011;9108;53.204;10.424;2023-05-10T03:12:04;8.17;;;4.00;;
17965;SDS011;9108;53.204;10.424;2023-05-10T03:14:37;9.23;;;4.35;;
17965;SDS011;9108;53.204;10.424;2023-05-10T03:17:09;7.20;;;3.95;;
17965;SDS011;9108;53.204;10.424;2023-05-10T03:19:39;9.95;;;4.20;;
17965;SDS011;9108;53.204;10.424;2023-05-10T03:22:08;7.20;;;4.00;;
17965;SDS011;9108;53.204;10.424;2023-05-10T03:24:37;8.70;;;4.10;;
17965;SDS011;9108;53.204;10.424;2023-05-10T03:27:06;7.18;;;4.05;;
17965;SDS011;9108;53.204;10.424;2023-05-10T03:29:35;9.05;;;4.05;;
17965;SDS011;9108;53.204;10.424;2023-05-10T03:32:03;9.18;;;4.25;;
17965;SDS011;9108;53.204;10.424;2023-05-10T03:34:30;8.43;;;4.22;;
17965;SDS011;9108;53.204;10.424;2023-05-10T03:36:57;8.50;;;4.15;;
17965;SDS011;9108;53.204;10.424;2023-05-10T03:39:24;8.20;;;4.20;;
17965;SDS011;9108;53.204;10.424;2023-05-10T03:41:51;8.30;;;4.25;;
17965;SDS011;9108;53.204;10.424;2023-05-10T03:44:19;8.13;;;4.38;;
17965;SDS011;9108;53.204;10.424;2023-05-10T03:46:47;7.35;;;4.30;;
17965;SDS011;9108;53.204;10.424;2023-05-10T03:49:14;8.85;;;4.20;;
17965;SDS011;9108;53.204;10.424;2023-05-10T03:51:41;8.45;;;3.90;;
17965;SDS011;9108;53.204;10.424;2023-05-10T03:54:08;8.38;;;4.20;;
17965;SDS011;9108;53.204;10.424;2023-05-10T03:56:36;8.43;;;4.00;;
17965;SDS011;9108;53.204;10.424;2023-05-10T03:59:03;9.00;;;4.10;;
17965;SDS011;9108;53.204;10.424;2023-05-10T04:01:32;7.78;;;4.10;;
17965;SDS011;9108;53.204;10.424;2023-05-10T04:04:00;8.40;;;4.00;;
17965;SDS011;9108;53.204;10.424;2023-05-10T04:06:27;8.35;;;3.88;;
17965;SDS011;9108;53.204;10.424;2023-05-10T04:08:55;8.55;;;3.88;;
17965;SDS011;9108;53.204;10.424;2023-05-10T04:11:25;7.30;;;4.30;;
17965;SDS011;9108;53.204;10.424;2023-05-10T04:13:52;7.95;;;3.90;;
17965;SDS011;9108;53.204;10.424;2023-05-10T04:16:19;8.30;;;4.20;;
17965;SDS011;9108;53.204;10.424;2023-05-10T04:18:46;7.50;;;4.10;;
17965;SDS011;9108;53.204;10.424;2023-05-10T04:21:15;8.93;;;4.65;;
17965;SDS011;9108;53.204;10.424;2023-05-10T04:23:42;8.25;;;4.07;;
17965;SDS011;9108;53.204;10.424;2023-05-10T04:26:09;6.55;;;4.03;;
17965;SDS011;9108;53.204;10.424;2023-05-10T04:28:36;6.43;;;3.90;;
17965;SDS011;9108;53.204;10.424;2023-05-10T04:31:04;8.00;;;4.40;;
17965;SDS011;9108;53.204;10.424;2023-05-10T04:33:31;8.60;;;4.10;;
17965;SDS011;9108;53.204;10.424;2023-05-10T04:35:58;9.65;;;4.32;;
17965;SDS011;9108;53.204;10.424;2023-05-10T04:38:27;6.10;;;3.90;;
17965;SDS011;9108;53.204;10.424;2023-05-10T04:41:03;7.63;;;4.07;;
17965;SDS011;9108;53.204;10.424;2023-05-10T04:43:30;6.82;;;3.72;;
17965;SDS011;9108;53.204;10.424;2023-05-10T04:45:57;7.90;;;3.90;;
17965;SDS011;9108;53.204;10.424;2023-05-10T04:48:24;9.57;;;3.90;;
17965;SDS011;9108;53.204;10.424;2023-05-10T04:50:51;6.70;;;3.88;;
17965;SDS011;9108;53.204;10.424;2023-05-10T04:53:19;8.43;;;3.83;;
17965;SDS011;9108;53.204;10.424;2023-05-10T04:55:47;7.57;;;3.95;;
17965;SDS011;9108;53.204;10.424;2023-05-10T04:58:14;7.32;;;3.53;;
17965;SDS011;9108;53.204;10.424;2023-05-10T05:00:41;8.75;;;3.90;;
17965;SDS011;9108;53.204;10.424;2023-05-10T05:03:16;6.80;;;3.72;;
17965;SDS011;9108;53.204;10.424;2023-05-10T05:05:43;9.38;;;3.78;;
17965;SDS011;9108;53.204;10.424;2023-05-10T05:08:10;6.47;;;3.55;;
17965;SDS011;9108;53.204;10.424;2023-05-10T05:10:37;7.10;;;3.58;;
17965;SDS011;9108;53.204;10.424;2023-05-10T05:13:09;6.63;;;3.70;;
17965;SDS011;9108;53.204;10.424;2023-05-10T05:15:36;7.32;;;3.60;;
17965;SDS011;9108;53.204;10.424;2023-05-10T05:18:03;7.47;;;3.70;;
17965;SDS011;9108;53.204;10.424;2023-05-10T05:20:31;6.95;;;3.47;;
17965;SDS011;9108;53.204;10.424;2023-05-10T05:22:59;6.30;;;3.67;;
17965;SDS011;9108;53.204;10.424;2023-05-10T05:25:26;7.15;;;3.67;;
17965;SDS011;9108;53.204;10.424;2023-05-10T05:27:53;7.95;;;3.60;;
17965;SDS011;9108;53.204;10.424;2023-05-10T05:30:22;7.78;;;3.65;;
17965;SDS011;9108;53.204;10.424;2023-05-10T05:32:49;6.55;;;3.85;;
17965;SDS011;9108;53.204;10.424;2023-05-10T05:35:16;8.55;;;3.58;;
17965;SDS011;9108;53.204;10.424;2023-05-10T05:37:43;6.75;;;3.67;;
17965;SDS011;9108;53.204;10.424;2023-05-10T05:40:12;7.20;;;3.55;;
17965;SDS011;9108;53.204;10.424;2023-05-10T05:42:39;8.23;;;3.83;;
17965;SDS011;9108;53.204;10.424;2023-05-10T05:45:06;6.68;;;3.50;;
17965;SDS011;9108;53.204;10.424;2023-05-10T05:47:39;5.93;;;3.50;;
17965;SDS011;9108;53.204;10.424;2023-05-10T05:50:06;6.38;;;3.40;;
17965;SDS011;9108;53.204;10.424;2023-05-10T05:52:33;7.53;;;3.37;;
17965;SDS011;9108;53.204;10.424;2023-05-10T05:55:01;6.18;;;3.47;;
17965;SDS011;9108;53.204;10.424;2023-05-10T05:57:28;9.25;;;3.60;;
17965;SDS011;9108;53.204;10.424;2023-05-10T05:59:55;7.68;;;3.85;;
17965;SDS011;9108;53.204;10.424;2023-05-10T06:02:23;7.35;;;3.50;;
17965;SDS011;9108;53.204;10.424;2023-05-10T06:04:51;6.40;;;3.55;;
17965;SDS011;9108;53.204;10.424;2023-05-10T06:07:18;5.70;;;3.60;;
17965;SDS011;9108;53.204;10.424;2023-05-10T06:09:46;6.70;;;3.60;;
17965;SDS011;9108;53.204;10.424;2023-05-10T06:12:13;6.38;;;3.45;;
17965;SDS011;9108;53.204;10.424;2023-05-10T06:14:40;7.40;;;3.60;;
17965;SDS011;9108;53.204;10.424;2023-05-10T06:17:07;7.40;;;3.60;;
17965;SDS011;9108;53.204;10.424;2023-05-10T06:19:34;7.60;;;3.40;;
17965;SDS011;9108;53.204;10.424;2023-05-10T06:22:03;6.38;;;3.28;;
17965;SDS011;9108;53.204;10.424;2023-05-10T06:24:30;6.47;;;3.42;;
17965;SDS011;9108;53.204;10.424;2023-05-10T06:26:57;6.53;;;3.28;;
17965;SDS011;9108;53.204;10.424;2023-05-10T06:29:25;7.82;;;3.80;;
17965;SDS011;9108;53.204;10.424;2023-05-10T06:31:52;7.43;;;3.70;;
17965;SDS011;9108;53.204;10.424;2023-05-10T06:34:19;9.50;;;3.60;;
17965;SDS011;9108;53.204;10.424;2023-05-10T06:36:46;7.03;;;3.70;;
17965;SDS011;9108;53.204;10.424;2023-05-10T06:39:15;8.50;;;4.00;;
17965;SDS011;9108;53.204;10.424;2023-05-10T06:41:42;7.28;;;3.72;;
17965;SDS011;9108;53.204;10.424;2023-05-10T06:44:09;6.20;;;3.57;;
17965;SDS011;9108;53.204;10.424;2023-05-10T06:46:36;6.72;;;3.90;;
17965;SDS011;9108;53.204;10.424;2023-05-10T06:49:03;7.18;;;3.63;;
17965;SDS011;9108;53.204;10.424;2023-05-10T06:51:31;6.83;;;3.43;;
17965;SDS011;9108;53.204;10.424;2023-05-10T06:53:58;5.97;;;3.53;;
17965;SDS011;9108;53.204;10.424;2023-05-10T06:56:27;6.95;;;3.67;;
17965;SDS011;9108;53.204;10.424;2023-05-10T06:58:54;7.20;;;3.72;;
17965;SDS011;9108;53.204;10.424;2023-05-10T07:01:21;7.30;;;3.40;;
17965;SDS011;9108;53.204;10.424;2023-05-10T07:03:48;5.75;;;3.20;;
17965;SDS011;9108;53.204;10.424;2023-05-10T07:06:15;6.68;;;3.60;;
17965;SDS011;9108;53.204;10.424;2023-05-10T07:08:42;7.90;;;3.80;;
17965;SDS011;9108;53.204;10.424;2023-05-10T07:11:10;7.97;;;3.60;;
17965;SDS011;9108;53.204;10.424;2023-05-10T07:13:38;6.63;;;3.50;;
17965;SDS011;9108;53.204;10.424;2023-05-10T07:16:09;8.75;;;3.72;;
17965;SDS011;9108;53.204;10.424;2023-05-10T07:18:36;7.87;;;3.57;;
17965;SDS011;9108;53.204;10.424;2023-05-10T07:21:03;6.18;;;3.40;;
17965;SDS011;9108;53.204;10.424;2023-05-10T07:23:30;6.20;;;3.72;;
17965;SDS011;9108;53.204;10.424;2023-05-10T07:25:57;7.27;;;3.80;;
17965;SDS011;9108;53.204;10.424;2023-05-10T07:28:25;7.55;;;3.90;;
17965;SDS011;9108;53.204;10.424;2023-05-10T07:30:53;8.05;;;3.90;;
17965;SDS011;9108;53.204;10.424;2023-05-10T07:33:20;8.57;;;3.90;;
17965;SDS011;9108;53.204;10.424;2023-05-10T07:35:47;7.57;;;3.90;;
17965;SDS011;9108;53.204;10.424;2023-05-10T07:38:14;7.50;;;3.83;;
17965;SDS011;9108;53.204;10.424;2023-05-10T07:40:42;6.28;;;3.78;;
17965;SDS011;9108;53.204;10.424;2023-05-10T07:43:09;6.63;;;3.72;;
17965;SDS011;9108;53.204;10.424;2023-05-10T07:45:36;7.22;;;3.55;;
17965;SDS011;9108;53.204;10.424;2023-05-10T07:48:05;9.15;;;3.70;;
17965;SDS011;9108;53.204;10.424;2023-05-10T07:50:32;8.48;;;3.92;;
17965;SDS011;9108;53.204;10.424;2023-05-10T07:52:59;7.30;;;3.58;;
17965;SDS011;9108;53.204;10.424;2023-05-10T07:55:26;6.20;;;3.50;;
17965;SDS011;9108;53.204;10.424;2023-05-10T07:57:53;6.32;;;3.88;;
17965;SDS011;9108;53.204;10.424;2023-05-10T08:00:21;8.15;;;3.60;;
17965;SDS011;9108;53.204;10.424;2023-05-10T08:02:48;6.88;;;3.50;;
17965;SDS011;9108;53.204;10.424;2023-05-10T08:05:17;5.53;;;3.70;;
17965;SDS011;9108;53.204;10.424;2023-05-10T08:07:44;7.10;;;4.00;;
17965;SDS011;9108;53.204;10.424;2023-05-10T08:10:11;7.35;;;3.95;;
17965;SDS011;9108;53.204;10.424;2023-05-10T08:12:38;7.97;;;4.03;;
17965;SDS011;9108;53.204;10.424;2023-05-10T08:15:06;7.63;;;3.90;;
17965;SDS011;9108;53.204;10.424;2023-05-10T08:17:33;6.57;;;3.90;;
17965;SDS011;9108;53.204;10.424;2023-05-10T08:20:00;7.07;;;3.95;;
17965;SDS011;9108;53.204;10.424;2023-05-10T08:22:29;7.73;;;3.73;;
17965;SDS011;9108;53.204;10.424;2023-05-10T08:24:56;8.52;;;4.28;;
17965;SDS011;9108;53.204;10.424;2023-05-10T08:27:23;7.25;;;3.90;;
17965;SDS011;9108;53.204;10.424;2023-05-10T08:29:53;6.15;;;4.07;;
17965;SDS011;9108;53.204;10.424;2023-05-10T08:32:20;9.95;;;4.40;;
17965;SDS011;9108;53.204;10.424;2023-05-10T08:34:47;6.72;;;3.88;;
17965;SDS011;9108;53.204;10.424;2023-05-10T08:37:14;7.20;;;4.32;;
17965;SDS011;9108;53.204;10.424;2023-05-10T08:39:43;8.20;;;4.30;;
17965;SDS011;9108;53.204;10.424;2023-05-10T08:42:12;7.80;;;4.32;;
17965;SDS011;9108;53.204;10.424;2023-05-10T08:44:43;10.50;;;4.60;;
17965;SDS011;9108;53.204;10.424;2023-05-10T08:47:10;7.07;;;4.30;;
17965;SDS011;9108;53.204;10.424;2023-05-10T08:49:38;6.60;;;4.15;;
17965;SDS011;9108;53.204;10.424;2023-05-10T08:52:05;8.77;;;4.17;;
17965;SDS011;9108;53.204;10.424;2023-05-10T08:54:33;9.40;;;4.40;;
17965;SDS011;9108;53.204;10.424;2023-05-10T08:57:02;10.02;;;4.20;;
17965;SDS011;9108;53.204;10.424;2023-05-10T08:59:29;9.15;;;4.65;;
17965;SDS011;9108;53.204;10.424;2023-05-10T09:01:58;9.43;;;4.30;;
17965;SDS011;9108;53.204;10.424;2023-05-10T09:04:25;6.60;;;4.20;;
17965;SDS011;9108;53.204;10.424;2023-05-10T09:06:52;8.53;;;4.13;;
17965;SDS011;9108;53.204;10.424;2023-05-10T09:09:19;9.60;;;4.72;;
17965;SDS011;9108;53.204;10.424;2023-05-10T09:11:47;7.93;;;4.30;;
17965;SDS011;9108;53.204;10.424;2023-05-10T09:14:16;8.00;;;4.10;;
17965;SDS011;9108;53.204;10.424;2023-05-10T09:16:43;7.43;;;4.30;;
17965;SDS011;9108;53.204;10.424;2023-05-10T09:19:10;9.65;;;4.30;;
17965;SDS011;9108;53.204;10.424;2023-05-10T09:21:37;7.85;;;4.10;;
17965;SDS011;9108;53.204;10.424;2023-05-10T09:24:05;8.48;;;4.57;;
17965;SDS011;9108;53.204;10.424;2023-05-10T09:26:33;7.28;;;4.20;;
17965;SDS011;9108;53.204;10.424;2023-05-10T09:29:00;7.45;;;4.40;;
17965;SDS011;9108;53.204;10.424;2023-05-10T09:31:45;7.73;;;4.50;;
17965;SDS011;9108;53.204;10.424;2023-05-10T09:34:16;9.65;;;4.55;;
17965;SDS011;9108;53.204;10.424;2023-05-10T09:36:50;10.55;;;4.68;;
17965;SDS011;9108;53.204;10.424;2023-05-10T09:39:18;8.13;;;4.72;;
17965;SDS011;9108;53.204;10.424;2023-05-10T09:41:45;8.65;;;4.47;;
17965;SDS011;9108;53.204;10.424;2023-05-10T09:44:14;8.55;;;4.60;;
17965;SDS011;9108;53.204;10.424;2023-05-10T09:46:49;10.70;;;5.10;;
17965;SDS011;9108;53.204;10.424;2023-05-10T09:49:17;9.10;;;5.17;;
17965;SDS011;9108;53.204;10.424;2023-05-10T09:51:45;8.15;;;4.90;;
17965;SDS011;9108;53.204;10.424;2023-05-10T09:54:13;8.33;;;4.90;;
17965;SDS011;9108;53.204;10.424;2023-05-10T09:56:41;9.73;;;5.18;;
17965;SDS011;9108;53.204;10.424;2023-05-10T09:59:09;9.27;;;4.90;;
17965;SDS011;9108;53.204;10.424;2023-05-10T10:01:37;9.57;;;5.20;;
17965;SDS011;9108;53.204;10.424;2023-05-10T10:04:06;8.75;;;5.10;;
17965;SDS011;9108;53.204;10.424;2023-05-10T10:06:36;8.07;;;5.05;;
17965;SDS011;9108;53.204;10.424;2023-05-10T10:09:04;10.07;;;5.72;;
17965;SDS011;9108;53.204;10.424;2023-05-10T10:11:32;10.70;;;5.80;;
17965;SDS011;9108;53.204;10.424;2023-05-10T10:13:59;8.67;;;5.90;;
17965;SDS011;9108;53.204;10.424;2023-05-10T10:16:26;8.93;;;5.90;;
17965;SDS011;9108;53.204;10.424;2023-05-10T10:18:53;9.90;;;6.22;;
17965;SDS011;9108;53.204;10.424;2023-05-10T10:21:22;11.90;;;6.38;;
17965;SDS011;9108;53.204;10.424;2023-05-10T10:23:50;11.18;;;6.55;;
17965;SDS011;9108;53.204;10.424;2023-05-10T10:26:18;12.00;;;7.13;;
17965;SDS011;9108;53.204;10.424;2023-05-10T10:28:47;9.60;;;6.80;;
17965;SDS011;9108;53.204;10.424;2023-05-10T10:31:17;10.77;;;6.97;;
17965;SDS011;9108;53.204;10.424;2023-05-10T10:33:51;12.35;;;7.20;;
17965;SDS011;9108;53.204;10.424;2023-05-10T10:36:24;11.02;;;7.22;;
17965;SDS011;9108;53.204;10.424;2023-05-10T10:38:56;13.32;;;8.18;;
17965;SDS011;9108;53.204;10.424;2023-05-10T10:41:29;16.65;;;8.60;;
17965;SDS011;9108;53.204;10.424;2023-05-10T10:49:25;15.02;;;8.00;;
17965;SDS011;9108;53.204;10.424;2023-05-10T10:54:35;13.48;;;8.55;;
17965;SDS011;9108;53.204;10.424;2023-05-10T10:59:48;14.18;;;8.52;;
17965;SDS011;9108;53.204;10.424;2023-05-10T11:02:34;13.88;;;8.65;;
17965;SDS011;9108;53.204;10.424;2023-05-10T11:07:50;15.83;;;9.33;;
17965;SDS011;9108;53.204;10.424;2023-05-10T11:10:20;15.10;;;9.77;;
17965;SDS011;9108;53.204;10.424;2023-05-10T11:13:01;14.95;;;9.18;;
17965;SDS011;9108;53.204;10.424;2023-05-10T11:15:29;15.32;;;8.73;;
17965;SDS011;9108;53.204;10.424;2023-05-10T11:17:56;16.27;;;9.25;;
17965;SDS011;9108;53.204;10.424;2023-05-10T11:20:23;14.45;;;9.02;;
17965;SDS011;9108;53.204;10.424;2023-05-10T11:22:58;15.45;;;9.13;;
17965;SDS011;9108;53.204;10.424;2023-05-10T11:25:41;13.60;;;8.02;;
17965;SDS011;9108;53.204;10.424;2023-05-10T11:28:10;13.43;;;8.60;;
17965;SDS011;9108;53.204;10.424;2023-05-10T11:30:38;14.73;;;9.00;;
17965;SDS011;9108;53.204;10.424;2023-05-10T11:33:05;15.70;;;9.68;;
17965;SDS011;9108;53.204;10.424;2023-05-10T11:35:36;15.10;;;9.75;;
17965;SDS011;9108;53.204;10.424;2023-05-10T11:38:05;15.07;;;8.85;;
17965;SDS011;9108;53.204;10.424;2023-05-10T11:40:32;14.05;;;8.13;;
17965;SDS011;9108;53.204;10.424;2023-05-10T11:43:01;13.60;;;8.98;;
17965;SDS011;9108;53.204;10.424;2023-05-10T11:45:28;13.65;;;8.75;;
17965;SDS011;9108;53.204;10.424;2023-05-10T11:47:56;14.20;;;9.10;;
17965;SDS011;9108;53.204;10.424;2023-05-10T11:50:23;14.37;;;9.03;;
17965;SDS011;9108;53.204;10.424;2023-05-10T11:52:52;14.73;;;9.05;;
17965;SDS011;9108;53.204;10.424;2023-05-10T11:55:19;14.55;;;9.02;;
17965;SDS011;9108;53.204;10.424;2023-05-10T11:57:46;14.48;;;9.32;;
17965;SDS011;9108;53.204;10.424;2023-05-10T12:00:15;13.93;;;8.73;;
17965;SDS011;9108;53.204;10.424;2023-05-10T12:02:42;12.13;;;8.23;;
17965;SDS011;9108;53.204;10.424;2023-05-10T12:05:09;13.48;;;8.77;;
17965;SDS011;9108;53.204;10.424;2023-05-10T12:07:37;14.95;;;8.82;;
17965;SDS011;9108;53.204;10.424;2023-05-10T12:10:05;13.65;;;8.43;;
17965;SDS011;9108;53.204;10.424;2023-05-10T12:12:36;16.48;;;9.05;;
17965;SDS011;9108;53.204;10.424;2023-05-10T12:15:04;12.65;;;8.30;;
17965;SDS011;9108;53.204;10.424;2023-05-10T12:17:33;13.30;;;8.88;;
17965;SDS011;9108;53.204;10.424;2023-05-10T12:20:13;13.43;;;8.60;;
17965;SDS011;9108;53.204;10.424;2023-05-10T12:22:40;13.63;;;8.38;;
17965;SDS011;9108;53.204;10.424;2023-05-10T12:25:08;13.60;;;8.15;;
17965;SDS011;9108;53.204;10.424;2023-05-10T12:27:36;13.48;;;8.57;;
17965;SDS011;9108;53.204;10.424;2023-05-10T12:30:03;13.60;;;8.50;;
17965;SDS011;9108;53.204;10.424;2023-05-10T12:32:41;13.20;;;8.52;;
17965;SDS011;9108;53.204;10.424;2023-05-10T12:35:08;14.05;;;8.32;;
17965;SDS011;9108;53.204;10.424;2023-05-10T12:37:35;13.23;;;7.88;;
17965;SDS011;9108;53.204;10.424;2023-05-10T12:40:05;12.77;;;8.75;;
17965;SDS011;9108;53.204;10.424;2023-05-10T12:42:33;14.02;;;8.35;;
17965;SDS011;9108;53.204;10.424;2023-05-10T12:45:00;13.52;;;8.35;;
17965;SDS011;9108;53.204;10.424;2023-05-10T12:47:28;11.85;;;7.78;;
17965;SDS011;9108;53.204;10.424;2023-05-10T12:49:57;12.50;;;8.23;;
17965;SDS011;9108;53.204;10.424;2023-05-10T12:52:24;12.10;;;8.05;;
17965;SDS011;9108;53.204;10.424;2023-05-10T12:54:51;11.13;;;7.40;;
17965;SDS011;9108;53.204;10.424;2023-05-10T12:57:19;8.88;;;6.22;;
17965;SDS011;9108;53.204;10.424;2023-05-10T12:59:46;9.50;;;6.50;;
17965;SDS011;9108;53.204;10.424;2023-05-10T13:02:16;10.02;;;7.07;;
17965;SDS011;9108;53.204;10.424;2023-05-10T13:04:44;9.63;;;6.22;;
17965;SDS011;9108;53.204;10.424;2023-05-10T13:07:13;9.43;;;6.28;;
17965;SDS011;9108;53.204;10.424;2023-05-10T13:09:40;7.40;;;5.28;;
17965;SDS011;9108;53.204;10.424;2023-05-10T13:12:07;7.63;;;5.22;;
17965;SDS011;9108;53.204;10.424;2023-05-10T13:14:34;9.27;;;6.05;;
17965;SDS011;9108;53.204;10.424;2023-05-10T13:17:01;7.20;;;5.35;;
17965;SDS011;9108;53.204;10.424;2023-05-10T13:19:29;7.95;;;5.60;;
17965;SDS011;9108;53.204;10.424;2023-05-10T13:21:56;8.77;;;5.30;;
17965;SDS011;9108;53.204;10.424;2023-05-10T13:24:24;7.72;;;5.32;;
17965;SDS011;9108;53.204;10.424;2023-05-10T13:26:52;7.70;;;4.90;;
17965;SDS011;9108;53.204;10.424;2023-05-10T13:29:19;9.35;;;5.47;;
17965;SDS011;9108;53.204;10.424;2023-05-10T13:31:47;9.13;;;5.93;;
17965;SDS011;9108;53.204;10.424;2023-05-10T13:34:14;14.48;;;9.75;;
17965;SDS011;9108;53.204;10.424;2023-05-10T13:36:45;11.60;;;7.45;;
17965;SDS011;9108;53.204;10.424;2023-05-10T13:39:12;11.57;;;7.05;;
17965;SDS011;9108;53.204;10.424;2023-05-10T13:41:41;7.37;;;5.40;;
17965;SDS011;9108;53.204;10.424;2023-05-10T13:44:08;11.57;;;7.40;;
17965;SDS011;9108;53.204;10.424;2023-05-10T13:46:37;21.70;;;11.38;;
17965;SDS011;9108;53.204;10.424;2023-05-10T13:49:04;5.72;;;4.20;;
17965;SDS011;9108;53.204;10.424;2023-05-10T13:51:32;6.60;;;4.60;;
17965;SDS011;9108;53.204;10.424;2023-05-10T13:54:00;5.22;;;3.40;;
17965;SDS011;9108;53.204;10.424;2023-05-10T13:56:28;7.82;;;5.65;;
17965;SDS011;9108;53.204;10.424;2023-05-10T13:58:57;5.60;;;3.90;;
17965;SDS011;9108;53.204;10.424;2023-05-10T14:01:24;5.55;;;4.22;;
17965;SDS011;9108;53.204;10.424;2023-05-10T14:03:51;4.93;;;4.00;;
17965;SDS011;9108;53.204;10.424;2023-05-10T14:06:18;4.95;;;3.25;;
17965;SDS011;9108;53.204;10.424;2023-05-10T14:08:46;4.15;;;3.00;;
17965;SDS011;9108;53.204;10.424;2023-05-10T14:11:13;5.18;;;3.53;;
17965;SDS011;9108;53.204;10.424;2023-05-10T14:13:41;4.18;;;2.97;;
17965;SDS011;9108;53.204;10.424;2023-05-10T14:16:12;7.57;;;5.00;;
17965;SDS011;9108;53.204;10.424;2023-05-10T14:18:39;6.07;;;4.32;;
17965;SDS011;9108;53.204;10.424;2023-05-10T14:21:14;3.75;;;2.72;;
17965;SDS011;9108;53.204;10.424;2023-05-10T14:23:41;3.75;;;2.80;;
17965;SDS011;9108;53.204;10.424;2023-05-10T14:26:13;3.67;;;2.70;;
17965;SDS011;9108;53.204;10.424;2023-05-10T14:28:43;4.00;;;2.90;;
17965;SDS011;9108;53.204;10.424;2023-05-10T14:31:19;4.30;;;2.80;;
17965;SDS011;9108;53.204;10.424;2023-05-10T14:33:51;4.60;;;2.97;;
17965;SDS011;9108;53.204;10.424;2023-05-10T14:36:18;3.67;;;2.90;;
17965;SDS011;9108;53.204;10.424;2023-05-10T14:38:48;3.50;;;2.70;;
17965;SDS011;9108;53.204;10.424;2023-05-10T14:41:17;4.28;;;2.75;;
17965;SDS011;9108;53.204;10.424;2023-05-10T14:43:45;3.30;;;2.70;;
17965;SDS011;9108;53.204;10.424;2023-05-10T14:46:19;4.03;;;3.10;;
17965;SDS011;9108;53.204;10.424;2023-05-10T14:48:48;4.05;;;2.85;;
17965;SDS011;9108;53.204;10.424;2023-05-10T14:51:18;3.63;;;2.70;;
17965;SDS011;9108;53.204;10.424;2023-05-10T14:53:47;3.85;;;2.70;;
17965;SDS011;9108;53.204;10.424;2023-05-10T14:56:15;4.20;;;2.65;;
17965;SDS011;9108;53.204;10.424;2023-05-10T14:58:42;4.67;;;2.67;;
17965;SDS011;9108;53.204;10.424;2023-05-10T15:04:09;3.80;;;2.63;;
17965;SDS011;9108;53.204;10.424;2023-05-10T15:06:38;4.80;;;2.63;;
17965;SDS011;9108;53.204;10.424;2023-05-10T15:09:06;4.75;;;2.90;;
17965;SDS011;9108;53.204;10.424;2023-05-10T15:14:30;4.38;;;2.70;;